createdAt,value
2018-09-24T00:00:47.114Z,999.90
2018-09-24T00:03:15.001Z,999.90
2018-09-24T00:05:42.875Z,999.90
2018-09-24T00:08:10.720Z,999.90
2018-09-24T00:10:38.616Z,999.90
2018-09-24T00:13:06.524Z,999.90
2018-09-24T00:15:34.395Z,909.37
2018-09-24T00:18:02.298Z,999.90
2018-09-24T00:20:30.203Z,994.53
2018-09-24T00:22:58.094Z,999.90
2018-09-24T00:25:25.989Z,999.90
2018-09-24T00:27:54.381Z,999.90
2018-09-24T00:30:22.273Z,999.90
2018-09-24T00:32:50.150Z,999.90
2018-09-24T00:35:18.023Z,975.30
2018-09-24T00:37:45.884Z,979.60
2018-09-24T00:40:13.752Z,992.07
2018-09-24T00:42:41.994Z,999.90
2018-09-24T00:45:09.852Z,934.33
2018-09-24T00:47:37.724Z,984.80
2018-09-24T00:50:05.661Z,999.90
2018-09-24T00:52:33.537Z,996.80
2018-09-24T00:55:01.466Z,999.47
2018-09-24T00:57:29.345Z,999.90
2018-09-24T00:59:57.243Z,999.90
2018-09-24T01:02:25.114Z,999.90
2018-09-24T01:04:52.995Z,999.90
2018-09-24T01:07:20.850Z,999.63
2018-09-24T01:09:48.725Z,999.90
2018-09-24T01:12:16.733Z,999.90
2018-09-24T01:14:44.607Z,999.90
2018-09-24T01:17:12.463Z,999.90
2018-09-24T01:19:40.343Z,999.90
2018-09-24T01:22:08.225Z,984.70
2018-09-24T01:24:36.278Z,999.90
2018-09-24T01:27:04.153Z,999.90
2018-09-24T01:29:32.039Z,999.90
2018-09-24T01:31:59.953Z,999.90
2018-09-24T01:34:27.848Z,999.90
2018-09-24T01:36:55.743Z,977.00
2018-09-24T01:39:23.599Z,999.90
2018-09-24T01:41:51.465Z,999.90
2018-09-24T01:44:19.350Z,999.90
2018-09-24T01:46:47.225Z,998.53
2018-09-24T01:49:15.100Z,999.90
2018-09-24T01:51:43.018Z,995.33
2018-09-24T01:54:10.883Z,982.20
2018-09-24T01:56:38.757Z,874.00
2018-09-24T01:59:06.730Z,981.13
2018-09-24T02:01:34.632Z,950.17
2018-09-24T02:04:02.495Z,999.90
2018-09-24T02:06:30.358Z,737.90
2018-09-24T02:08:58.232Z,899.00
2018-09-24T02:11:26.104Z,976.00
2018-09-24T02:13:53.972Z,999.90
2018-09-24T02:16:21.826Z,987.40
2018-09-24T02:18:50.074Z,955.33
2018-09-24T02:21:18.314Z,994.87
2018-09-24T02:23:46.207Z,983.27
2018-09-24T02:26:14.075Z,999.90
2018-09-24T02:28:41.929Z,999.90
2018-09-24T02:31:09.883Z,999.90
2018-09-24T02:33:37.762Z,999.90
2018-09-24T02:36:05.647Z,888.20
2018-09-24T02:38:37.661Z,958.07
2018-09-24T02:41:05.534Z,999.90
2018-09-24T02:43:33.394Z,991.53
2018-09-24T02:46:01.267Z,912.53
2018-09-24T02:48:29.144Z,999.90
2018-09-24T02:50:57.090Z,996.00
2018-09-24T02:53:24.966Z,999.90
2018-09-24T02:55:52.851Z,974.87
2018-09-24T02:58:21.543Z,999.90
2018-09-24T03:00:49.746Z,999.90
2018-09-24T03:03:17.598Z,999.90
2018-09-24T03:05:45.562Z,999.90
2018-09-24T03:08:14.269Z,999.90
2018-09-24T03:10:42.516Z,999.90
2018-09-24T03:13:10.363Z,985.13
2018-09-24T03:15:38.790Z,999.90
2018-09-24T03:18:07.540Z,872.10
2018-09-24T03:20:36.730Z,992.03
2018-09-24T03:23:04.911Z,973.63
2018-09-24T03:25:32.760Z,999.90
2018-09-24T03:28:01.857Z,999.90
2018-09-24T03:30:35.568Z,999.90
2018-09-24T03:33:03.694Z,878.97
2018-09-24T03:35:32.023Z,999.90
2018-09-24T03:37:59.907Z,984.03
2018-09-24T03:40:27.758Z,999.90
2018-09-24T03:42:56.652Z,999.00
2018-09-24T03:45:24.555Z,999.90
2018-09-24T03:47:52.588Z,956.40
2018-09-24T03:50:20.463Z,999.90
2018-09-24T03:52:48.324Z,861.63
2018-09-24T03:55:16.175Z,942.93
2018-09-24T03:57:44.074Z,999.90
2018-09-24T04:00:12.229Z,999.90
2018-09-24T04:02:40.639Z,999.90
2018-09-24T04:05:14.055Z,999.90
2018-09-24T04:07:47.531Z,999.90
2018-09-24T04:10:21.043Z,999.90
2018-09-24T04:12:54.539Z,999.90
2018-09-24T04:15:27.849Z,999.90
2018-09-24T04:18:01.375Z,999.90
2018-09-24T04:20:34.721Z,999.90
2018-09-24T04:23:08.029Z,998.40
2018-09-24T04:25:41.534Z,899.77
2018-09-24T04:28:15.014Z,999.90
2018-09-24T04:30:48.414Z,999.90
2018-09-24T04:33:21.874Z,999.90
2018-09-24T04:35:55.303Z,999.90
2018-09-24T04:38:28.819Z,895.47
2018-09-24T04:41:02.210Z,999.90
2018-09-24T04:43:35.578Z,999.90
2018-09-24T04:46:08.973Z,999.90
2018-09-24T04:48:42.455Z,999.90
2018-09-24T04:51:15.870Z,891.13
2018-09-24T04:53:49.367Z,999.90
2018-09-24T04:56:22.889Z,981.67
2018-09-24T04:58:56.399Z,953.60
2018-09-24T05:01:29.953Z,999.90
2018-09-24T05:04:03.388Z,999.90
2018-09-24T05:06:36.714Z,999.90
2018-09-24T05:09:11.695Z,923.90
2018-09-24T05:11:45.226Z,936.67
2018-09-24T05:14:18.619Z,990.87
2018-09-24T05:16:52.127Z,841.93
2018-09-24T05:19:25.631Z,999.90
2018-09-24T05:21:59.286Z,999.90
2018-09-24T05:24:32.808Z,999.90
2018-09-24T05:27:06.290Z,999.90
2018-09-24T05:29:39.639Z,954.13
2018-09-24T05:32:13.043Z,937.27
2018-09-24T05:34:46.528Z,999.90
2018-09-24T05:37:20.110Z,999.90
2018-09-24T05:39:53.482Z,999.90
2018-09-24T05:42:26.991Z,921.83
2018-09-24T05:45:00.482Z,999.90
2018-09-24T05:47:33.945Z,999.90
2018-09-24T05:50:07.314Z,999.90
2018-09-24T05:52:40.894Z,994.97
2018-09-24T05:55:14.349Z,979.53
2018-09-24T05:57:47.734Z,992.93
2018-09-24T06:00:21.252Z,656.07
2018-09-24T06:02:54.719Z,631.90
2018-09-24T06:05:28.138Z,752.90
2018-09-24T06:08:01.463Z,658.23
2018-09-24T06:10:34.951Z,584.30
2018-09-24T06:13:08.249Z,505.27
2018-09-24T06:15:41.618Z,560.23
2018-09-24T06:18:15.142Z,769.30
2018-09-24T06:20:48.578Z,598.20
2018-09-24T06:23:22.062Z,689.80
2018-09-24T06:25:55.430Z,583.07
2018-09-24T06:28:28.962Z,783.23
2018-09-24T06:31:02.247Z,780.70
2018-09-24T06:33:35.611Z,693.53
2018-09-24T06:36:09.159Z,638.63
2018-09-24T06:38:42.567Z,828.43
2018-09-24T06:41:16.062Z,917.53
2018-09-24T06:43:49.471Z,835.63
2018-09-24T06:46:22.943Z,824.50
2018-09-24T06:48:56.420Z,801.83
2018-09-24T06:51:29.779Z,831.63
2018-09-24T06:54:03.239Z,855.93
2018-09-24T06:56:36.739Z,787.03
2018-09-24T06:59:10.091Z,956.20
2018-09-24T07:01:43.491Z,579.50
2018-09-24T07:04:16.990Z,985.57
2018-09-24T07:06:50.319Z,663.63
2018-09-24T07:09:23.697Z,726.13
2018-09-24T07:11:57.150Z,850.37
2018-09-24T07:14:30.658Z,999.90
2018-09-24T07:17:04.183Z,889.80
2018-09-24T07:19:37.720Z,566.27
2018-09-24T07:22:11.258Z,752.20
2018-09-24T07:24:44.695Z,999.90
2018-09-24T07:27:18.042Z,805.17
2018-09-24T07:29:51.590Z,724.80
2018-09-24T07:32:25.055Z,409.90
2018-09-24T07:34:58.464Z,797.60
2018-09-24T07:37:31.884Z,528.23
2018-09-24T07:40:05.347Z,867.97
2018-09-24T07:42:38.785Z,417.33
2018-09-24T07:45:12.254Z,999.90
2018-09-24T07:47:45.798Z,897.27
2018-09-24T07:50:19.136Z,692.20
2018-09-24T07:52:52.506Z,671.40
2018-09-24T07:55:26.007Z,655.07
2018-09-24T07:57:59.515Z,999.37
2018-09-24T08:00:32.990Z,999.90
2018-09-24T08:03:06.386Z,982.40
2018-09-24T08:05:39.926Z,533.90
2018-09-24T08:08:13.494Z,635.50
2018-09-24T08:10:47.043Z,517.20
2018-09-24T08:13:20.720Z,366.07
2018-09-24T08:15:54.014Z,508.17
2018-09-24T08:18:27.380Z,313.00
2018-09-24T08:21:00.760Z,292.07
2018-09-24T08:23:34.121Z,433.07
2018-09-24T08:26:07.530Z,850.37
2018-09-24T08:28:40.958Z,264.20
2018-09-24T08:31:14.495Z,406.20
2018-09-24T08:33:47.955Z,467.10
2018-09-24T08:36:21.506Z,322.60
2018-09-24T08:38:54.981Z,486.30
2018-09-24T08:41:28.498Z,131.37
2018-09-24T08:44:02.055Z,352.90
2018-09-24T08:46:35.455Z,750.27
2018-09-24T08:49:08.935Z,335.07
2018-09-24T08:51:42.290Z,243.23
2018-09-24T08:54:15.758Z,497.80
2018-09-24T08:56:49.196Z,361.53
2018-09-24T08:59:22.494Z,483.57
2018-09-24T09:01:55.970Z,333.33
2018-09-24T09:04:29.446Z,209.43
2018-09-24T09:07:02.794Z,235.87
2018-09-24T09:09:36.160Z,352.43
2018-09-24T09:12:09.569Z,309.57
2018-09-24T09:14:43.067Z,249.97
2018-09-24T09:17:16.571Z,289.33
2018-09-24T09:19:50.051Z,315.03
2018-09-24T09:22:23.512Z,373.90
2018-09-24T09:24:57.062Z,64.80
2018-09-24T09:27:30.416Z,378.33
2018-09-24T09:30:03.932Z,210.70
2018-09-24T09:32:37.410Z,70.90
2018-09-24T09:35:10.813Z,28.53
2018-09-24T09:37:44.282Z,94.13
2018-09-24T09:40:17.645Z,72.67
2018-09-24T09:42:51.103Z,252.60
2018-09-24T09:45:24.579Z,18.27
2018-09-24T09:47:57.973Z,69.90
2018-09-24T09:50:31.515Z,87.13
2018-09-24T09:53:04.942Z,27.67
2018-09-24T09:55:38.418Z,175.50
2018-09-24T09:58:11.756Z,31.77
2018-09-24T10:00:45.023Z,105.97
2018-09-24T10:03:18.432Z,63.40
2018-09-24T10:05:51.960Z,79.23
2018-09-24T10:08:25.490Z,165.77
2018-09-24T10:10:58.854Z,32.00
2018-09-24T10:13:32.318Z,12.03
2018-09-24T10:16:05.634Z,407.07
2018-09-24T10:18:39.127Z,365.83
2018-09-24T10:21:12.678Z,38.07
2018-09-24T10:23:46.190Z,499.60
2018-09-24T10:26:19.706Z,197.77
2018-09-24T10:28:53.219Z,49.37
2018-09-24T10:31:26.681Z,16.90
2018-09-24T10:34:00.020Z,140.90
2018-09-24T10:36:33.495Z,192.10
2018-09-24T10:39:06.958Z,277.83
2018-09-24T10:41:40.330Z,824.03
2018-09-24T10:44:13.718Z,967.30
2018-09-24T10:46:47.212Z,955.53
2018-09-24T10:49:20.747Z,891.23
2018-09-24T10:51:54.175Z,193.87
2018-09-24T10:54:27.675Z,47.93
2018-09-24T10:57:01.161Z,43.90
2018-09-24T10:59:34.576Z,54.37
2018-09-24T11:02:07.941Z,109.10
2018-09-24T11:04:41.282Z,238.63
2018-09-24T11:07:14.614Z,566.53
2018-09-24T11:09:48.067Z,617.03
2018-09-24T11:12:21.443Z,118.10
2018-09-24T11:14:54.755Z,308.47
2018-09-24T11:17:28.346Z,344.70
2018-09-24T11:20:01.630Z,101.93
2018-09-24T11:22:34.929Z,15.83
2018-09-24T11:25:08.258Z,127.93
2018-09-24T11:27:41.628Z,74.37
2018-09-24T11:30:15.005Z,20.07
2018-09-24T11:32:48.512Z,21.77
2018-09-24T11:35:21.972Z,30.90
2018-09-24T11:37:55.325Z,11.43
2018-09-24T11:40:28.827Z,14.80
2018-09-24T11:43:02.267Z,15.20
2018-09-24T11:45:35.739Z,7.43
2018-09-24T11:48:09.121Z,13.93
2018-09-24T11:50:42.650Z,167.93
2018-09-24T11:53:15.975Z,10.83
2018-09-24T11:55:49.383Z,11.33
2018-09-24T11:58:22.762Z,13.20
2018-09-24T12:00:56.238Z,8.30
2018-09-24T12:03:29.563Z,9.30
2018-09-24T12:06:02.995Z,9.13
2018-09-24T12:08:36.417Z,771.13
2018-09-24T12:11:09.937Z,580.83
2018-09-24T12:13:43.382Z,665.83
2018-09-24T12:16:16.738Z,912.00
2018-09-24T12:18:50.059Z,999.90
2018-09-24T12:21:23.395Z,999.90
2018-09-24T12:23:56.913Z,999.90
2018-09-24T12:26:30.251Z,999.90
2018-09-24T12:29:03.703Z,999.90
2018-09-24T12:31:37.190Z,939.23
2018-09-24T12:34:10.702Z,689.43
2018-09-24T12:36:44.262Z,999.90
2018-09-24T12:39:17.667Z,954.47
2018-09-24T12:41:51.100Z,618.07
2018-09-24T12:44:24.410Z,44.17
2018-09-24T12:46:57.755Z,126.07
2018-09-24T12:49:31.174Z,36.70
2018-09-24T12:52:04.491Z,290.17
2018-09-24T12:54:37.958Z,471.53
2018-09-24T12:57:11.325Z,356.90
2018-09-24T12:59:44.866Z,405.80
2018-09-24T13:02:18.324Z,3.20
2018-09-24T13:04:51.697Z,262.73
2018-09-24T13:07:25.178Z,92.97
2018-09-24T13:09:58.479Z,24.13
2018-09-24T13:12:31.992Z,227.40
2018-09-24T13:15:05.467Z,107.10
2018-09-24T13:17:38.922Z,724.87
2018-09-24T13:20:12.527Z,629.97
2018-09-24T13:22:45.951Z,334.67
2018-09-24T13:25:19.429Z,540.10
2018-09-24T13:27:52.875Z,614.43
2018-09-24T13:30:26.431Z,174.37
2018-09-24T13:32:59.758Z,241.90
2018-09-24T13:35:33.241Z,478.53
2018-09-24T13:38:06.618Z,235.13
2018-09-24T13:40:40.115Z,34.80
2018-09-24T13:43:13.474Z,86.37
2018-09-24T13:45:46.809Z,116.53
2018-09-24T13:48:20.154Z,183.40
2018-09-24T13:50:53.519Z,246.00
2018-09-24T13:53:27.004Z,15.93
2018-09-24T13:56:00.491Z,160.03
2018-09-24T13:58:33.822Z,36.00
2018-09-24T14:01:07.302Z,27.57
2018-09-24T14:03:40.794Z,23.17
2018-09-24T14:06:14.298Z,13.87
2018-09-24T14:08:47.757Z,34.83
2018-09-24T14:11:21.126Z,6.20
2018-09-24T14:13:54.495Z,18.43
2018-09-24T14:16:28.023Z,154.07
2018-09-24T14:19:01.490Z,12.47
2018-09-24T14:21:34.796Z,4.60
2018-09-24T14:24:08.140Z,18.53
2018-09-24T14:26:41.534Z,10.37
2018-09-24T14:29:14.838Z,5.13
2018-09-24T14:31:48.324Z,27.00
2018-09-24T14:34:21.774Z,23.90
2018-09-24T14:36:55.171Z,37.30
2018-09-24T14:39:28.703Z,13.87
2018-09-24T14:42:02.071Z,7.17
2018-09-24T14:44:35.562Z,46.20
2018-09-24T14:47:09.119Z,19.10
2018-09-24T14:49:42.566Z,8.93
2018-09-24T14:52:16.147Z,9.63
2018-09-24T14:54:49.498Z,4.20
2018-09-24T14:57:22.893Z,23.07
2018-09-24T14:59:56.358Z,123.53
2018-09-24T15:02:29.627Z,6.67
2018-09-24T15:05:03.079Z,49.50
2018-09-24T15:07:36.610Z,14.20
2018-09-24T15:10:10.066Z,5.23
2018-09-24T15:12:43.442Z,33.60
2018-09-24T15:15:16.878Z,13.57
2018-09-24T15:17:50.254Z,58.90
2018-09-24T15:20:23.734Z,17.90
2018-09-24T15:22:57.072Z,10.73
2018-09-24T15:25:30.449Z,5.63
2018-09-24T15:28:03.790Z,22.20
2018-09-24T15:30:37.223Z,18.30
2018-09-24T15:33:10.766Z,63.03
2018-09-24T15:35:44.470Z,37.13
2018-09-24T15:38:17.970Z,6.30
2018-09-24T15:40:52.755Z,16.63
2018-09-24T15:43:28.425Z,7.90
2018-09-24T15:46:02.133Z,4.20
2018-09-24T15:48:35.409Z,4.77
2018-09-24T15:51:08.746Z,12.50
2018-09-24T15:53:44.574Z,9.30
2018-09-24T15:56:18.262Z,53.80
2018-09-24T15:58:51.806Z,536.13
2018-09-24T16:01:25.365Z,292.83
2018-09-24T16:03:58.962Z,160.40
2018-09-24T16:06:32.425Z,49.93
2018-09-24T16:09:05.959Z,207.17
2018-09-24T16:11:39.366Z,41.23
2018-09-24T16:14:12.683Z,3.73
2018-09-24T16:16:48.715Z,10.43
2018-09-24T16:19:22.335Z,11.07
2018-09-24T16:21:55.670Z,3.97
2018-09-24T16:24:29.173Z,4.27
2018-09-24T16:27:02.651Z,3.97
2018-09-24T16:29:35.968Z,5.17
2018-09-24T16:32:09.335Z,5.97
2018-09-24T16:34:42.695Z,3.47
2018-09-24T16:37:16.164Z,4.30
2018-09-24T16:39:49.500Z,4.37
2018-09-24T16:42:22.941Z,4.13
2018-09-24T16:44:56.232Z,4.30
2018-09-24T16:47:29.577Z,138.20
2018-09-24T16:50:03.095Z,134.90
2018-09-24T16:52:36.541Z,176.03
2018-09-24T16:55:10.023Z,84.97
2018-09-24T16:57:43.508Z,48.97
2018-09-24T17:00:16.871Z,394.37
2018-09-24T17:02:50.222Z,564.13
2018-09-24T17:05:23.570Z,113.70
2018-09-24T17:07:56.974Z,234.43
2018-09-24T17:10:30.308Z,212.67
2018-09-24T17:13:03.761Z,265.93
2018-09-24T17:15:37.274Z,109.93
2018-09-24T17:18:10.585Z,54.97
2018-09-24T17:20:50.809Z,27.03
2018-09-24T17:23:24.244Z,126.87
2018-09-24T17:25:57.710Z,63.10
2018-09-24T17:28:31.104Z,267.67
2018-09-24T17:31:04.487Z,42.17
2018-09-24T17:33:37.983Z,517.73
2018-09-24T17:36:11.347Z,487.87
2018-09-24T17:38:44.688Z,552.20
2018-09-24T17:41:18.157Z,749.37
2018-09-24T17:43:51.579Z,607.63
2018-09-24T17:46:25.043Z,720.83
2018-09-24T17:48:58.467Z,818.90
2018-09-24T17:51:32.106Z,556.70
2018-09-24T17:54:05.415Z,682.80
2018-09-24T17:56:38.926Z,314.67
2018-09-24T17:59:12.150Z,234.53
2018-09-24T18:01:45.606Z,312.90
2018-09-24T18:04:19.082Z,433.07
2018-09-24T18:06:52.550Z,410.53
2018-09-24T18:09:26.081Z,433.33
2018-09-24T18:11:59.504Z,414.67
2018-09-24T18:14:32.935Z,342.57
2018-09-24T18:17:06.414Z,338.23
2018-09-24T18:19:39.849Z,248.23
2018-09-24T18:22:13.198Z,201.10
2018-09-24T18:24:46.730Z,255.10
2018-09-24T18:27:20.181Z,276.20
2018-09-24T18:29:53.688Z,384.27
2018-09-24T18:32:27.071Z,596.17
2018-09-24T18:35:00.490Z,542.33
2018-09-24T18:37:34.047Z,568.27
2018-09-24T18:40:07.527Z,541.97
2018-09-24T18:42:41.087Z,507.87
2018-09-24T18:45:14.611Z,723.73
2018-09-24T18:47:48.165Z,849.50
2018-09-24T18:50:21.495Z,860.97
2018-09-24T18:52:55.047Z,955.77
2018-09-24T18:55:28.573Z,996.83
2018-09-24T18:58:01.916Z,999.90
2018-09-24T19:00:35.454Z,773.77
2018-09-24T19:03:08.819Z,622.37
2018-09-24T19:05:42.316Z,506.13
2018-09-24T19:08:15.681Z,554.43
2018-09-24T19:10:49.139Z,371.50
2018-09-24T19:13:22.592Z,547.63
2018-09-24T19:15:56.194Z,218.37
2018-09-24T19:18:30.701Z,238.30
2018-09-24T19:21:04.092Z,246.70
2018-09-24T19:23:37.567Z,389.60
2018-09-24T19:26:11.308Z,283.63
2018-09-24T19:28:45.782Z,303.37
2018-09-24T19:31:19.093Z,150.17
2018-09-24T19:33:52.426Z,130.10
2018-09-24T19:36:25.840Z,184.83
2018-09-24T19:39:01.428Z,463.60
2018-09-24T19:41:34.982Z,6.37
2018-09-24T19:44:08.410Z,15.97
2018-09-24T19:46:41.978Z,59.53
2018-09-24T19:49:15.526Z,8.20
2018-09-24T19:51:49.856Z,5.53
2018-09-24T19:54:23.346Z,7.93
2018-09-24T19:56:56.691Z,7.00
2018-09-24T19:59:32.103Z,6.23
2018-09-24T20:02:05.422Z,5.70
2018-09-24T20:04:38.909Z,11.07
2018-09-24T20:07:12.182Z,45.40
2018-09-24T20:09:45.543Z,61.57
2018-09-24T20:12:19.011Z,41.17
2018-09-24T20:14:52.393Z,45.27
2018-09-24T20:17:27.007Z,109.97
2018-09-24T20:20:00.566Z,63.13
2018-09-24T20:22:34.058Z,136.93
2018-09-24T20:25:07.372Z,198.20
2018-09-24T20:27:41.003Z,142.00
2018-09-24T20:30:14.492Z,229.43
2018-09-24T20:32:47.937Z,350.30
2018-09-24T20:35:21.489Z,303.53
2018-09-24T20:37:54.803Z,502.53
2018-09-24T20:40:28.181Z,445.37
2018-09-24T20:43:01.826Z,399.87
2018-09-24T20:45:35.439Z,348.70
2018-09-24T20:48:08.973Z,922.73
2018-09-24T20:50:42.560Z,438.53
2018-09-24T20:53:16.159Z,758.33
2018-09-24T20:55:49.807Z,407.87
2018-09-24T20:58:23.347Z,983.47
2018-09-24T21:00:57.974Z,560.20
2018-09-24T21:03:31.547Z,552.53
2018-09-24T21:06:05.163Z,958.07
2018-09-24T21:08:38.505Z,478.77
2018-09-24T21:11:12.032Z,987.27
2018-09-24T21:13:45.580Z,976.77
2018-09-24T21:16:19.093Z,589.60
2018-09-24T21:18:52.587Z,513.97
2018-09-24T21:21:26.152Z,774.73
2018-09-24T21:23:59.578Z,999.90
2018-09-24T21:26:33.003Z,999.90
2018-09-24T21:29:08.576Z,675.83
2018-09-24T21:31:42.140Z,911.17
2018-09-24T21:34:15.515Z,987.07
2018-09-24T21:36:49.062Z,796.23
2018-09-24T21:39:22.585Z,485.90
2018-09-24T21:41:56.163Z,832.00
2018-09-24T21:44:29.648Z,481.17
2018-09-24T21:47:03.313Z,937.90
2018-09-24T21:49:36.718Z,979.60
2018-09-24T21:52:10.256Z,920.17
2018-09-24T21:54:43.700Z,991.77
2018-09-24T21:57:17.125Z,999.90
2018-09-24T21:59:50.534Z,614.33
2018-09-24T22:02:23.997Z,566.87
2018-09-24T22:04:57.534Z,505.60
2018-09-24T22:07:31.030Z,667.53
2018-09-24T22:10:04.468Z,522.60
2018-09-24T22:12:37.850Z,946.03
2018-09-24T22:15:11.375Z,973.53
2018-09-24T22:17:44.759Z,738.40
2018-09-24T22:20:18.211Z,603.87
2018-09-24T22:22:51.728Z,658.47
2018-09-24T22:25:25.259Z,982.17
2018-09-24T22:27:58.731Z,995.37
2018-09-24T22:30:32.215Z,673.77
2018-09-24T22:33:05.642Z,481.47
2018-09-24T22:35:39.002Z,587.23
2018-09-24T22:38:12.500Z,600.57
2018-09-24T22:40:46.106Z,446.67
2018-09-24T22:43:19.598Z,569.80
2018-09-24T22:45:52.999Z,617.23
2018-09-24T22:48:26.482Z,947.13
2018-09-24T22:50:59.982Z,766.43
2018-09-24T22:53:33.445Z,657.43
2018-09-24T22:56:06.895Z,658.10
2018-09-24T22:58:40.238Z,598.43
2018-09-24T23:01:13.515Z,849.93
2018-09-24T23:03:46.896Z,443.30
2018-09-24T23:06:20.461Z,440.00
2018-09-24T23:08:54.038Z,628.57
2018-09-24T23:11:27.601Z,999.90
2018-09-24T23:14:01.124Z,999.90
2018-09-24T23:16:34.567Z,999.90
2018-09-24T23:19:08.092Z,623.53
2018-09-24T23:21:41.632Z,615.07
2018-09-24T23:24:15.052Z,704.07
2018-09-24T23:26:48.559Z,642.80
2018-09-24T23:29:22.082Z,742.23
2018-09-24T23:31:55.523Z,999.50
2018-09-24T23:34:29.015Z,983.07
2018-09-24T23:37:02.583Z,583.53
2018-09-24T23:39:36.043Z,999.90
2018-09-24T23:42:09.538Z,997.93
2018-09-24T23:44:42.930Z,999.90
2018-09-24T23:47:16.446Z,999.90
2018-09-24T23:49:49.914Z,761.77
2018-09-24T23:52:23.209Z,678.37
2018-09-24T23:54:56.651Z,591.17
2018-09-24T23:57:30.152Z,996.77
